createdAt,value
2022-09-26T00:01:42.848Z,8.38
2022-09-26T00:04:24.648Z,8.45
2022-09-26T00:06:55.483Z,7.90
2022-09-26T00:09:24.860Z,7.43
2022-09-26T00:11:52.720Z,8.43
2022-09-26T00:14:24.317Z,7.85
2022-09-26T00:19:22.754Z,8.00
2022-09-26T00:21:50.081Z,7.68
2022-09-26T00:24:21.086Z,7.38
2022-09-26T00:26:48.495Z,7.70
2022-09-26T00:29:15.957Z,7.28
2022-09-26T00:31:49.113Z,7.95
2022-09-26T00:34:19.346Z,7.53
2022-09-26T00:36:46.802Z,7.53
2022-09-26T00:39:15.877Z,7.68
2022-09-26T00:41:44.132Z,7.22
2022-09-26T00:44:42.796Z,8.30
2022-09-26T00:47:38.419Z,7.40
2022-09-26T00:50:16.729Z,7.68
2022-09-26T00:52:54.382Z,7.45
2022-09-26T00:55:25.583Z,7.30
2022-09-26T00:58:04.526Z,7.32
2022-09-26T01:00:31.917Z,7.60
2022-09-26T01:03:00.598Z,7.40
2022-09-26T01:05:28.572Z,7.20
2022-09-26T01:07:57.147Z,7.13
2022-09-26T01:10:27.728Z,6.93
2022-09-26T01:12:57.050Z,6.95
2022-09-26T01:15:24.414Z,7.50
2022-09-26T01:17:54.210Z,7.30
2022-09-26T01:20:21.590Z,7.25
2022-09-26T01:23:10.941Z,7.82
2022-09-26T01:25:50.077Z,7.22
2022-09-26T01:28:42.737Z,7.78
2022-09-26T01:31:38.604Z,7.32
2022-09-26T01:34:11.423Z,7.07
2022-09-26T01:36:53.832Z,6.95
2022-09-26T01:39:41.587Z,7.18
2022-09-26T01:42:29.126Z,6.75
2022-09-26T01:45:18.996Z,6.70
2022-09-26T01:47:55.690Z,7.63
2022-09-26T01:50:42.769Z,7.50
2022-09-26T01:53:12.653Z,6.60
2022-09-26T01:55:48.075Z,5.97
2022-09-26T01:58:18.976Z,6.00
2022-09-26T02:00:48.082Z,6.70
2022-09-26T02:03:21.695Z,6.40
2022-09-26T02:06:04.028Z,6.45
2022-09-26T02:08:33.798Z,6.53
2022-09-26T02:11:06.236Z,6.75
2022-09-26T02:13:51.913Z,7.65
2022-09-26T02:16:25.128Z,6.82
2022-09-26T02:19:05.973Z,7.40
2022-09-26T02:21:33.380Z,6.97
2022-09-26T02:24:03.924Z,6.80
2022-09-26T02:26:31.337Z,7.03
2022-09-26T02:29:03.759Z,7.53
2022-09-26T02:31:36.538Z,6.55
2022-09-26T02:34:04.761Z,7.10
2022-09-26T02:36:33.699Z,7.22
2022-09-26T02:39:01.881Z,6.72
2022-09-26T02:41:50.674Z,6.82
2022-09-26T02:45:12.718Z,6.50
2022-09-26T02:48:03.925Z,5.80
2022-09-26T02:51:16.873Z,6.63
2022-09-26T02:54:21.393Z,6.80
2022-09-26T02:57:16.226Z,6.28
2022-09-26T03:00:02.073Z,6.13
2022-09-26T03:02:37.255Z,6.22
2022-09-26T03:05:12.694Z,7.10
2022-09-26T03:08:12.223Z,6.55
2022-09-26T03:10:41.666Z,6.55
2022-09-26T03:13:13.330Z,6.88
2022-09-26T03:18:14.610Z,6.68
2022-09-26T03:20:42.039Z,6.72
2022-09-26T03:23:09.873Z,7.07
2022-09-26T03:25:41.892Z,6.80
2022-09-26T03:28:12.329Z,7.10
2022-09-26T03:30:39.900Z,6.80
2022-09-26T03:33:09.335Z,7.28
2022-09-26T03:35:36.655Z,7.85
2022-09-26T03:38:03.981Z,8.90
2022-09-26T03:40:31.397Z,8.27
2022-09-26T03:42:58.677Z,9.45
2022-09-26T03:45:28.730Z,8.57
2022-09-26T03:47:57.538Z,8.43
2022-09-26T03:50:25.125Z,8.98
2022-09-26T03:52:52.661Z,8.95
2022-09-26T03:55:20.006Z,8.88
2022-09-26T03:57:47.324Z,8.23
2022-09-26T04:00:14.785Z,8.88
2022-09-26T04:02:42.133Z,9.77
2022-09-26T04:05:12.035Z,9.95
2022-09-26T04:07:39.388Z,12.25
2022-09-26T04:10:07.353Z,14.50
2022-09-26T04:12:34.838Z,15.25
2022-09-26T04:15:02.480Z,16.80
2022-09-26T04:17:29.780Z,16.48
2022-09-26T04:19:57.189Z,17.13
2022-09-26T04:22:27.408Z,15.43
2022-09-26T04:24:55.228Z,15.68
2022-09-26T04:27:26.132Z,15.93
2022-09-26T04:29:57.172Z,16.63
2022-09-26T04:32:24.962Z,16.65
2022-09-26T04:34:52.224Z,16.13
2022-09-26T04:37:25.454Z,16.55
2022-09-26T04:39:52.721Z,17.08
2022-09-26T04:42:24.433Z,15.88
2022-09-26T04:44:51.744Z,16.60
2022-09-26T04:47:19.139Z,15.68
2022-09-26T04:49:46.836Z,16.48
2022-09-26T04:52:14.143Z,17.80
2022-09-26T04:54:41.453Z,17.15
2022-09-26T04:57:13.010Z,16.88
2022-09-26T04:59:43.436Z,16.17
2022-09-26T05:02:10.940Z,16.92
2022-09-26T05:04:40.487Z,17.73
2022-09-26T05:07:07.833Z,15.80
2022-09-26T05:09:36.282Z,17.05
2022-09-26T05:12:03.957Z,16.85
2022-09-26T05:14:31.236Z,17.10
2022-09-26T05:16:58.505Z,16.33
2022-09-26T05:19:26.834Z,16.52
2022-09-26T05:21:54.442Z,17.17
2022-09-26T05:24:40.536Z,17.40
2022-09-26T05:27:08.156Z,16.75
2022-09-26T05:29:37.926Z,16.23
2022-09-26T05:32:05.353Z,17.10
2022-09-26T05:34:34.907Z,15.57
2022-09-26T05:37:02.336Z,15.07
2022-09-26T05:39:48.147Z,12.70
2022-09-26T05:42:15.488Z,11.13
2022-09-26T05:44:42.867Z,11.02
2022-09-26T05:47:13.328Z,11.07
2022-09-26T05:49:40.736Z,11.77
2022-09-26T05:52:08.066Z,10.75
2022-09-26T05:54:35.386Z,11.00
2022-09-26T05:57:04.776Z,10.38
2022-09-26T05:59:32.074Z,12.93
2022-09-26T06:02:01.789Z,15.95
2022-09-26T06:04:29.601Z,14.10
2022-09-26T06:06:56.983Z,21.13
2022-09-26T06:09:28.944Z,11.82
2022-09-26T06:11:59.624Z,11.40
2022-09-26T06:14:29.709Z,13.23
2022-09-26T06:16:57.020Z,17.63
2022-09-26T06:19:26.630Z,13.25
2022-09-26T06:21:56.696Z,11.68
2022-09-26T06:24:24.087Z,11.25
2022-09-26T06:26:55.348Z,11.57
2022-09-26T06:29:25.196Z,11.65
2022-09-26T06:31:54.791Z,11.07
2022-09-26T06:34:26.121Z,12.50
2022-09-26T06:37:01.156Z,11.13
2022-09-26T06:39:37.032Z,11.77
2022-09-26T06:42:08.557Z,11.52
2022-09-26T06:44:38.292Z,11.35
2022-09-26T06:47:09.092Z,11.88
2022-09-26T06:49:38.843Z,10.23
2022-09-26T06:52:06.187Z,11.07
2022-09-26T06:54:33.487Z,11.48
2022-09-26T06:57:02.891Z,10.55
2022-09-26T06:59:30.285Z,10.20
2022-09-26T07:02:00.371Z,10.80
2022-09-26T07:04:28.196Z,10.05
2022-09-26T07:06:58.337Z,9.93
2022-09-26T07:09:25.938Z,10.02
2022-09-26T07:12:14.165Z,9.98
2022-09-26T07:14:50.129Z,9.82
2022-09-26T07:17:20.869Z,10.07
2022-09-26T07:19:52.903Z,10.60
2022-09-26T07:22:22.406Z,10.45
2022-09-26T07:24:50.736Z,9.85
2022-09-26T07:27:18.450Z,10.48
2022-09-26T07:29:47.402Z,9.68
2022-09-26T07:32:17.219Z,9.93
2022-09-26T07:34:49.293Z,9.68
2022-09-26T07:37:17.339Z,9.68
2022-09-26T07:39:44.718Z,10.40
2022-09-26T07:42:12.341Z,10.02
2022-09-26T07:45:20.593Z,10.68
2022-09-26T07:47:46.457Z,10.20
2022-09-26T07:50:16.699Z,10.07
2022-09-26T07:52:48.556Z,9.20
2022-09-26T07:55:21.661Z,8.80
2022-09-26T07:57:50.129Z,8.60
2022-09-26T08:00:21.345Z,8.90
2022-09-26T08:02:48.778Z,8.88
2022-09-26T08:05:20.023Z,9.32
2022-09-26T08:07:50.730Z,9.50
2022-09-26T08:10:23.436Z,9.07
2022-09-26T08:12:53.541Z,8.95
2022-09-26T08:15:20.880Z,9.52
2022-09-26T08:17:48.194Z,28.75
2022-09-26T08:20:15.593Z,14.75
2022-09-26T08:22:43.288Z,8.95
2022-09-26T08:25:10.605Z,11.02
2022-09-26T08:27:40.334Z,9.80
2022-09-26T08:30:08.440Z,9.52
2022-09-26T08:32:37.240Z,10.02
2022-09-26T08:35:05.112Z,10.15
2022-09-26T08:37:32.826Z,10.43
2022-09-26T08:40:00.951Z,9.60
2022-09-26T08:42:42.793Z,9.82
2022-09-26T08:45:54.621Z,8.55
2022-09-26T08:48:33.349Z,8.35
2022-09-26T08:51:30.153Z,9.00
2022-09-26T08:54:16.662Z,8.45
2022-09-26T08:57:06.830Z,8.65
2022-09-26T08:59:46.030Z,7.30
2022-09-26T09:02:41.982Z,7.72
2022-09-26T09:05:28.700Z,7.60
2022-09-26T09:08:03.619Z,8.43
2022-09-26T09:10:47.698Z,8.60
2022-09-26T09:13:31.656Z,8.85
2022-09-26T09:16:23.414Z,8.13
2022-09-26T09:19:15.693Z,7.95
2022-09-26T09:22:34.208Z,8.02
2022-09-26T09:25:17.452Z,7.47
2022-09-26T09:28:07.226Z,7.25
2022-09-26T09:30:45.260Z,7.78
2022-09-26T09:33:35.851Z,8.35
2022-09-26T09:36:18.579Z,7.90
2022-09-26T09:38:48.599Z,8.98
2022-09-26T09:41:25.146Z,8.25
2022-09-26T09:44:03.699Z,8.40
2022-09-26T09:46:43.234Z,8.10
2022-09-26T09:49:10.640Z,7.93
2022-09-26T09:51:48.072Z,7.65
2022-09-26T09:54:41.893Z,7.57
2022-09-26T09:57:26.150Z,8.55
2022-09-26T10:00:07.093Z,7.30
2022-09-26T10:02:47.407Z,7.50
2022-09-26T10:05:17.567Z,7.57
2022-09-26T10:07:49.838Z,9.05
2022-09-26T10:10:21.960Z,7.65
2022-09-26T10:12:52.060Z,7.38
2022-09-26T10:15:26.415Z,8.75
2022-09-26T10:18:22.814Z,10.07
2022-09-26T10:20:59.836Z,8.50
2022-09-26T10:23:35.716Z,7.80
2022-09-26T10:26:09.393Z,7.28
2022-09-26T10:28:45.010Z,11.18
2022-09-26T10:31:31.302Z,8.10
2022-09-26T10:34:03.154Z,6.18
2022-09-26T10:36:36.706Z,12.25
2022-09-26T10:39:44.316Z,7.07
2022-09-26T10:42:20.731Z,5.75
2022-09-26T10:44:49.390Z,4.90
2022-09-26T10:47:29.981Z,5.15
2022-09-26T10:50:28.155Z,4.30
2022-09-26T10:53:02.800Z,3.20
2022-09-26T10:56:00.462Z,3.33
2022-09-26T10:58:32.587Z,2.80
2022-09-26T11:01:01.266Z,3.75
2022-09-26T11:03:46.248Z,3.38
2022-09-26T11:06:49.793Z,3.65
2022-09-26T11:09:23.644Z,2.78
2022-09-26T11:11:52.665Z,3.47
2022-09-26T11:14:32.729Z,3.85
2022-09-26T11:17:00.805Z,3.78
2022-09-26T11:19:48.990Z,4.20
2022-09-26T11:22:23.810Z,3.50
2022-09-26T11:27:46.881Z,20.98
2022-09-26T11:30:22.613Z,2.70
2022-09-26T11:32:54.119Z,16.27
2022-09-26T11:38:28.074Z,1.95
2022-09-26T11:41:36.834Z,1.52
2022-09-26T11:44:27.025Z,1.60
2022-09-26T11:47:23.307Z,1.83
2022-09-26T11:50:28.588Z,1.33
2022-09-26T11:53:03.505Z,1.40
2022-09-26T11:55:54.347Z,1.45
2022-09-26T11:58:38.368Z,1.30
2022-09-26T12:01:29.278Z,1.40
2022-09-26T12:04:29.856Z,1.60
2022-09-26T12:07:16.495Z,1.40
2022-09-26T12:10:04.837Z,1.40
2022-09-26T12:12:43.416Z,1.20
2022-09-26T12:15:31.630Z,1.27
2022-09-26T12:18:16.758Z,1.30
2022-09-26T12:21:13.729Z,1.30
2022-09-26T12:23:53.726Z,1.45
2022-09-26T12:26:46.612Z,1.20
2022-09-26T12:29:28.248Z,1.00
2022-09-26T12:32:07.619Z,1.00
2022-09-26T12:35:28.265Z,1.30
2022-09-26T12:38:36.892Z,1.63
2022-09-26T12:42:03.644Z,2.33
2022-09-26T12:44:59.845Z,6.60
2022-09-26T12:48:12.449Z,7.78
2022-09-26T12:51:10.408Z,3.50
2022-09-26T12:53:54.910Z,4.72
2022-09-26T12:56:43.931Z,8.50
2022-09-26T12:59:38.523Z,12.25
2022-09-26T13:02:17.555Z,5.20
2022-09-26T13:05:09.090Z,3.92
2022-09-26T13:10:24.641Z,0.70
2022-09-26T13:13:23.226Z,0.70
2022-09-26T13:16:02.380Z,1.10
2022-09-26T13:18:46.354Z,0.88
2022-09-26T13:21:19.679Z,0.50
2022-09-26T13:24:04.186Z,0.77
2022-09-26T13:26:37.726Z,0.90
2022-09-26T13:29:20.853Z,1.08
2022-09-26T13:32:29.719Z,1.50
2022-09-26T13:35:24.441Z,1.10
2022-09-26T13:38:15.548Z,1.55
2022-09-26T13:41:12.253Z,1.30
2022-09-26T13:44:04.670Z,1.50
2022-09-26T13:46:52.496Z,1.20
2022-09-26T13:49:35.199Z,1.35
2022-09-26T13:52:29.528Z,1.38
2022-09-26T13:55:02.330Z,1.30
2022-09-26T13:57:36.959Z,1.15
2022-09-26T14:00:30.263Z,1.00
2022-09-26T14:03:13.794Z,1.30
2022-09-26T14:05:47.037Z,1.60
2022-09-26T14:09:29.317Z,2.20
2022-09-26T14:15:16.231Z,2.03
2022-09-26T14:17:52.009Z,1.85
2022-09-26T14:20:28.220Z,1.85
2022-09-26T14:22:58.757Z,1.90
2022-09-26T14:25:50.747Z,1.70
2022-09-26T14:28:39.928Z,1.25
2022-09-26T14:31:27.913Z,1.95
2022-09-26T14:34:23.505Z,2.45
2022-09-26T14:36:53.726Z,13.13
2022-09-26T14:39:37.526Z,5.95
2022-09-26T14:42:13.775Z,9.50
2022-09-26T14:44:53.698Z,20.52
2022-09-26T14:47:25.520Z,66.88
2022-09-26T14:49:59.958Z,28.52
2022-09-26T14:52:30.795Z,17.52
2022-09-26T14:55:01.443Z,11.10
2022-09-26T14:57:34.257Z,13.40
2022-09-26T15:00:22.113Z,5.65
2022-09-26T15:02:50.605Z,5.82
2022-09-26T15:05:28.277Z,7.43
2022-09-26T15:07:57.046Z,4.35
2022-09-26T15:10:39.073Z,2.95
2022-09-26T15:13:37.751Z,3.30
2022-09-26T15:16:37.671Z,3.25
2022-09-26T15:19:14.868Z,4.25
2022-09-26T15:21:48.463Z,4.00
2022-09-26T15:24:47.372Z,5.88
2022-09-26T15:27:29.749Z,6.85
2022-09-26T15:30:16.002Z,8.45
2022-09-26T15:32:43.969Z,6.47
2022-09-26T15:35:17.187Z,4.80
2022-09-26T15:37:46.028Z,6.43
2022-09-26T15:40:23.323Z,7.03
2022-09-26T15:43:06.141Z,6.75
2022-09-26T15:45:46.467Z,3.90
2022-09-26T15:48:19.892Z,3.35
2022-09-26T15:50:47.692Z,3.25
2022-09-26T15:53:39.686Z,3.28
2022-09-26T15:56:16.390Z,3.13
2022-09-26T15:58:49.370Z,2.97
2022-09-26T16:01:19.291Z,2.83
2022-09-26T16:04:05.914Z,2.92
2022-09-26T16:06:53.417Z,3.35
2022-09-26T16:09:34.516Z,3.50
2022-09-26T16:12:15.976Z,2.92
2022-09-26T16:15:07.062Z,2.92
2022-09-26T16:17:49.135Z,2.92
2022-09-26T16:20:16.921Z,2.92
2022-09-26T16:22:51.363Z,2.90
2022-09-26T16:25:18.991Z,2.80
2022-09-26T16:27:59.500Z,3.03
2022-09-26T16:30:30.233Z,2.75
2022-09-26T16:33:21.624Z,11.48
2022-09-26T16:35:49.280Z,9.43
2022-09-26T16:38:26.153Z,8.35
2022-09-26T16:40:56.044Z,11.35
2022-09-26T16:43:27.927Z,8.85
2022-09-26T16:46:23.197Z,6.88
2022-09-26T16:48:50.681Z,5.78
2022-09-26T16:51:37.548Z,5.68
2022-09-26T16:54:10.846Z,5.23
2022-09-26T16:56:43.275Z,4.45
2022-09-26T16:59:17.093Z,4.78
2022-09-26T17:01:55.716Z,5.65
2022-09-26T17:04:36.441Z,5.15
2022-09-26T17:07:10.433Z,5.28
2022-09-26T17:09:41.398Z,4.15
2022-09-26T17:12:14.721Z,4.22
2022-09-26T17:14:44.237Z,4.50
2022-09-26T17:17:18.580Z,4.03
2022-09-26T17:19:59.401Z,4.22
2022-09-26T17:22:28.528Z,4.30
2022-09-26T17:25:04.890Z,4.80
2022-09-26T17:27:34.257Z,5.00
2022-09-26T17:30:07.724Z,5.13
2022-09-26T17:32:37.895Z,6.13
2022-09-26T17:35:16.953Z,6.18
2022-09-26T17:37:44.507Z,5.43
2022-09-26T17:40:19.843Z,5.45
2022-09-26T17:42:47.503Z,5.18
2022-09-26T17:45:21.681Z,5.07
2022-09-26T17:47:49.394Z,5.32
2022-09-26T17:50:34.434Z,5.05
2022-09-26T17:53:03.316Z,5.53
2022-09-26T17:55:32.056Z,5.18
2022-09-26T17:57:59.911Z,5.22
2022-09-26T18:00:39.473Z,5.22
2022-09-26T18:03:15.576Z,5.10
2022-09-26T18:05:51.416Z,4.72
2022-09-26T18:08:46.369Z,4.63
2022-09-26T18:11:17.453Z,6.80
2022-09-26T18:13:54.479Z,7.85
2022-09-26T18:16:22.946Z,8.48
2022-09-26T18:18:55.731Z,7.03
2022-09-26T18:21:24.347Z,8.18
2022-09-26T18:24:02.718Z,10.82
2022-09-26T18:26:34.018Z,7.25
2022-09-26T18:29:07.772Z,5.72
2022-09-26T18:31:41.237Z,5.80
2022-09-26T18:34:19.973Z,6.57
2022-09-26T18:36:50.251Z,7.93
2022-09-26T18:39:17.736Z,5.70
2022-09-26T18:41:45.985Z,5.20
2022-09-26T18:44:19.861Z,5.28
2022-09-26T18:46:49.275Z,18.33
2022-09-26T18:49:21.033Z,20.98
2022-09-26T18:54:17.474Z,8.73
2022-09-26T18:57:04.206Z,7.88
2022-09-26T18:59:37.243Z,6.55
2022-09-26T19:02:39.543Z,5.18
2022-09-26T19:05:15.328Z,5.53
2022-09-26T19:07:52.399Z,5.07
2022-09-26T19:10:26.310Z,5.25
2022-09-26T19:13:00.953Z,5.13
2022-09-26T19:15:31.786Z,5.35
2022-09-26T19:17:59.245Z,5.25
2022-09-26T19:20:26.685Z,4.68
2022-09-26T19:22:59.841Z,4.97
2022-09-26T19:25:27.363Z,4.82
2022-09-26T19:28:03.683Z,4.88
2022-09-26T19:30:32.473Z,5.75
2022-09-26T19:33:12.274Z,5.80
2022-09-26T19:35:40.228Z,6.30
2022-09-26T19:38:26.173Z,5.90
2022-09-26T19:40:54.925Z,6.13
2022-09-26T19:43:25.497Z,5.85
2022-09-26T19:45:56.791Z,5.88
2022-09-26T19:48:29.577Z,5.93
2022-09-26T19:50:57.196Z,5.50
2022-09-26T19:53:34.919Z,5.55
2022-09-26T19:56:12.652Z,5.70
2022-09-26T19:58:40.565Z,5.47
2022-09-26T20:01:16.472Z,5.57
2022-09-26T20:03:51.084Z,6.05
2022-09-26T20:06:37.381Z,6.35
2022-09-26T20:09:14.525Z,6.30
2022-09-26T20:11:51.768Z,5.63
2022-09-26T20:14:27.379Z,5.25
2022-09-26T20:17:13.448Z,5.07
2022-09-26T20:19:46.065Z,4.85
2022-09-26T20:22:22.725Z,4.63
2022-09-26T20:25:03.491Z,4.78
2022-09-26T20:27:31.290Z,4.70
2022-09-26T20:30:25.384Z,5.15
2022-09-26T20:32:56.614Z,5.20
2022-09-26T20:35:27.892Z,5.65
2022-09-26T20:38:02.462Z,5.00
2022-09-26T20:40:37.469Z,5.05
2022-09-26T20:43:11.559Z,5.07
2022-09-26T20:45:45.452Z,4.88
2022-09-26T20:48:32.465Z,4.65
2022-09-26T20:51:04.579Z,5.07
2022-09-26T20:53:38.976Z,5.10
2022-09-26T20:56:21.364Z,4.95
2022-09-26T20:58:51.506Z,5.15
2022-09-26T21:01:21.387Z,5.43
2022-09-26T21:03:51.802Z,5.00
2022-09-26T21:06:23.579Z,5.57
2022-09-26T21:08:51.514Z,5.70
2022-09-26T21:11:21.149Z,5.93
2022-09-26T21:13:51.571Z,4.70
2022-09-26T21:16:21.313Z,5.32
2022-09-26T21:18:56.707Z,4.93
2022-09-26T21:21:30.133Z,5.45
2022-09-26T21:24:00.826Z,5.72
2022-09-26T21:26:31.396Z,5.20
2022-09-26T21:28:59.465Z,6.15
2022-09-26T21:31:35.625Z,5.75
2022-09-26T21:34:04.743Z,5.43
2022-09-26T21:36:37.523Z,5.65
2022-09-26T21:39:05.810Z,4.90
2022-09-26T21:41:33.550Z,4.80
2022-09-26T21:44:06.228Z,4.50
2022-09-26T21:46:33.776Z,4.50
2022-09-26T21:49:03.762Z,4.30
2022-09-26T21:51:31.933Z,4.10
2022-09-26T21:54:38.349Z,3.60
2022-09-26T21:57:19.932Z,2.95
2022-09-26T21:59:50.137Z,3.25
2022-09-26T22:02:17.779Z,3.40
2022-09-26T22:04:49.834Z,4.10
2022-09-26T22:07:17.267Z,5.43
2022-09-26T22:09:44.796Z,5.65
2022-09-26T22:12:12.294Z,5.57
2022-09-26T22:14:53.211Z,5.25
2022-09-26T22:17:20.853Z,4.55
2022-09-26T22:19:53.436Z,4.88
2022-09-26T22:22:21.662Z,5.05
2022-09-26T22:24:52.983Z,4.70
2022-09-26T22:27:21.337Z,4.70
2022-09-26T22:29:48.771Z,4.90
2022-09-26T22:32:16.118Z,4.28
2022-09-26T22:34:46.126Z,3.75
2022-09-26T22:37:16.132Z,3.55
2022-09-26T22:39:46.105Z,3.47
2022-09-26T22:42:19.470Z,3.20
2022-09-26T22:44:47.064Z,3.75
2022-09-26T22:47:14.904Z,3.45
2022-09-26T22:49:42.414Z,2.92
2022-09-26T22:52:09.993Z,3.08
2022-09-26T22:54:37.505Z,3.30
2022-09-26T22:57:05.074Z,2.72
2022-09-26T22:59:40.225Z,2.90
2022-09-26T23:02:07.656Z,2.95
2022-09-26T23:04:50.692Z,2.72
2022-09-26T23:07:23.057Z,3.20
2022-09-26T23:09:50.526Z,3.00
2022-09-26T23:12:19.102Z,2.90
2022-09-26T23:14:54.171Z,2.90
2022-09-26T23:17:21.577Z,2.85
2022-09-26T23:19:51.784Z,2.83
2022-09-26T23:22:19.288Z,2.85
2022-09-26T23:24:46.676Z,3.05
2022-09-26T23:27:14.166Z,3.20
2022-09-26T23:29:41.863Z,3.00
2022-09-26T23:32:09.240Z,3.33
2022-09-26T23:34:36.657Z,3.35
2022-09-26T23:37:04.629Z,3.55
2022-09-26T23:39:32.006Z,3.42
2022-09-26T23:42:00.036Z,3.35
2022-09-26T23:44:27.693Z,3.13
2022-09-26T23:46:55.098Z,3.42
2022-09-26T23:49:27.924Z,3.35
2022-09-26T23:51:55.391Z,3.40
2022-09-26T23:54:32.258Z,3.30
2022-09-26T23:57:00.534Z,3.63
2022-09-26T23:59:34.447Z,3.40
